createdAt,value
2022-10-26T00:01:17.229Z,9.6
2022-10-26T00:04:05.385Z,9.6
2022-10-26T00:06:53.213Z,9.6
2022-10-26T00:09:40.511Z,9.6
2022-10-26T00:12:27.944Z,9.6
2022-10-26T00:15:15.146Z,9.6
2022-10-26T00:18:03.390Z,9.5
2022-10-26T00:20:50.834Z,9.5
2022-10-26T00:23:38.179Z,9.4
2022-10-26T00:26:25.794Z,9.4
2022-10-26T00:29:13.730Z,9.4
2022-10-26T00:32:02.902Z,9.4
2022-10-26T00:34:51.297Z,9.4
2022-10-26T00:37:38.790Z,9.4
2022-10-26T00:40:26.059Z,9.4
2022-10-26T00:43:13.980Z,9.4
2022-10-26T00:46:18.885Z,9.4
2022-10-26T00:49:09.718Z,9.4
2022-10-26T00:52:01.058Z,9.4
2022-10-26T00:54:48.819Z,9.4
2022-10-26T00:57:38.693Z,9.4
2022-10-26T01:00:26.638Z,9.4
2022-10-26T01:03:14.115Z,9.4
2022-10-26T01:06:03.065Z,9.5
2022-10-26T01:08:51.533Z,9.5
2022-10-26T01:11:39.683Z,9.5
2022-10-26T01:14:26.913Z,9.5
2022-10-26T01:17:14.772Z,9.5
2022-10-26T01:20:18.656Z,9.5
2022-10-26T01:23:30.467Z,9.5
2022-10-26T01:26:28.260Z,9.4
2022-10-26T01:29:37.125Z,9.4
2022-10-26T01:32:46.372Z,9.4
2022-10-26T01:35:49.040Z,9.3
2022-10-26T01:38:45.730Z,9.3
2022-10-26T01:41:41.151Z,9.3
2022-10-26T01:44:33.169Z,9.3
2022-10-26T01:47:27.393Z,9.3
2022-10-26T01:50:18.864Z,9.3
2022-10-26T01:53:08.037Z,9.3
2022-10-26T01:55:57.340Z,9.2
2022-10-26T01:58:46.383Z,9.2
2022-10-26T02:01:51.944Z,9.2
2022-10-26T02:05:03.647Z,9.2
2022-10-26T02:08:10.986Z,9.2
2022-10-26T02:11:12.287Z,9.2
2022-10-26T02:14:15.856Z,9.2
2022-10-26T02:17:09.187Z,9.1
2022-10-26T02:20:05.580Z,9.1
2022-10-26T02:22:58.989Z,9.1
2022-10-26T02:25:49.170Z,9.1
2022-10-26T02:28:41.392Z,9.1
2022-10-26T02:31:33.651Z,9.1
2022-10-26T02:34:22.776Z,9.1
2022-10-26T02:37:13.957Z,9.1
2022-10-26T02:40:05.655Z,9.1
2022-10-26T02:42:58.391Z,9.1
2022-10-26T02:45:51.236Z,9.1
2022-10-26T02:48:42.325Z,9.1
2022-10-26T02:51:29.965Z,9.1
2022-10-26T02:54:24.929Z,9.1
2022-10-26T02:57:16.535Z,9.1
2022-10-26T03:02:59.394Z,9
2022-10-26T03:05:48.162Z,9
2022-10-26T03:08:35.519Z,9
2022-10-26T03:11:22.832Z,9
2022-10-26T03:14:10.123Z,9
2022-10-26T03:16:57.352Z,9
2022-10-26T03:19:44.643Z,9
2022-10-26T03:22:31.956Z,8.9
2022-10-26T03:25:19.231Z,8.9
2022-10-26T03:28:06.618Z,8.9
2022-10-26T03:30:54.766Z,8.9
2022-10-26T03:33:41.984Z,8.9
2022-10-26T03:36:29.326Z,8.9
2022-10-26T03:39:17.882Z,8.9
2022-10-26T03:42:05.535Z,8.8
2022-10-26T03:44:52.812Z,8.8
2022-10-26T03:47:40.016Z,8.8
2022-10-26T03:50:30.058Z,8.8
2022-10-26T03:53:17.655Z,8.8
2022-10-26T03:56:05.719Z,8.7
2022-10-26T03:58:53.567Z,8.7
2022-10-26T04:01:41.112Z,8.7
2022-10-26T04:04:28.946Z,8.7
2022-10-26T04:07:16.591Z,8.7
2022-10-26T04:10:05.240Z,8.7
2022-10-26T04:12:53.855Z,8.6
2022-10-26T04:15:43.486Z,8.6
2022-10-26T04:18:30.860Z,8.5
2022-10-26T04:21:18.469Z,8.5
2022-10-26T04:24:05.841Z,8.4
2022-10-26T04:26:54.861Z,8.4
2022-10-26T04:29:42.303Z,8.5
2022-10-26T04:32:29.732Z,8.4
2022-10-26T04:35:17.469Z,8.4
2022-10-26T04:38:05.778Z,8.4
2022-10-26T04:40:53.281Z,8.4
2022-10-26T04:43:40.552Z,8.4
2022-10-26T04:46:27.966Z,8.3
2022-10-26T04:49:15.277Z,8.3
2022-10-26T04:52:03.221Z,8.3
2022-10-26T04:54:50.889Z,8.3
2022-10-26T04:57:38.161Z,8.3
2022-10-26T05:00:29.823Z,8.3
2022-10-26T05:03:18.778Z,8.3
2022-10-26T05:06:06.260Z,8.3
2022-10-26T05:08:53.583Z,8.3
2022-10-26T05:11:40.879Z,8.3
2022-10-26T05:14:28.170Z,8.2
2022-10-26T05:17:15.399Z,8.2
2022-10-26T05:20:03.700Z,8.2
2022-10-26T05:22:57.612Z,8.1
2022-10-26T05:25:46.913Z,8.1
2022-10-26T05:28:34.773Z,8.1
2022-10-26T05:31:22.073Z,8
2022-10-26T05:34:09.427Z,8
2022-10-26T05:36:56.824Z,8
2022-10-26T05:39:44.109Z,8.1
2022-10-26T05:42:31.414Z,8.1
2022-10-26T05:45:18.866Z,8.1
2022-10-26T05:48:06.298Z,8
2022-10-26T05:50:53.564Z,8
2022-10-26T05:53:45.119Z,8
2022-10-26T05:56:33.191Z,8
2022-10-26T05:59:22.437Z,8
2022-10-26T06:02:10.507Z,8
2022-10-26T06:05:14.074Z,8
2022-10-26T06:08:07.753Z,7.9
2022-10-26T06:10:56.552Z,7.9
2022-10-26T06:13:47.352Z,7.9
2022-10-26T06:16:36.116Z,7.9
2022-10-26T06:19:33.707Z,7.9
2022-10-26T06:22:36.954Z,7.9
2022-10-26T06:25:35.920Z,7.9
2022-10-26T06:31:27.540Z,7.9
2022-10-26T06:34:15.313Z,7.9
2022-10-26T06:37:10.606Z,7.9
2022-10-26T06:39:59.037Z,7.9
2022-10-26T06:42:47.605Z,8
2022-10-26T06:45:35.721Z,8.1
2022-10-26T06:48:25.387Z,8.1
2022-10-26T06:51:18.315Z,8.1
2022-10-26T06:54:06.780Z,8.1
2022-10-26T06:57:04.155Z,8.2
2022-10-26T06:59:54.142Z,8.2
2022-10-26T07:02:45.427Z,8.2
2022-10-26T07:05:34.127Z,8.3
2022-10-26T07:08:21.751Z,8.3
2022-10-26T07:11:09.377Z,8.3
2022-10-26T07:13:56.723Z,8.3
2022-10-26T07:16:44.211Z,8.3
2022-10-26T07:19:31.776Z,8.3
2022-10-26T07:22:19.424Z,8.3
2022-10-26T07:25:06.840Z,8.3
2022-10-26T07:27:56.100Z,8.3
2022-10-26T07:30:44.711Z,8.4
2022-10-26T07:33:31.989Z,8.5
2022-10-26T07:36:19.528Z,8.5
2022-10-26T07:39:07.194Z,8.6
2022-10-26T07:41:54.579Z,8.6
2022-10-26T07:44:41.764Z,8.7
2022-10-26T07:47:29.183Z,8.7
2022-10-26T07:50:16.567Z,8.8
2022-10-26T07:53:05.233Z,8.8
2022-10-26T07:55:52.533Z,8.9
2022-10-26T07:58:40.876Z,8.9
2022-10-26T08:01:28.478Z,9
2022-10-26T08:04:15.948Z,9.1
2022-10-26T08:07:04.348Z,9.2
2022-10-26T08:09:51.913Z,9.3
2022-10-26T08:12:39.385Z,9.3
2022-10-26T08:15:27.649Z,9.4
2022-10-26T08:18:14.932Z,9.5
2022-10-26T08:21:10.736Z,9.5
2022-10-26T08:23:59.255Z,9.6
2022-10-26T08:26:46.780Z,9.6
2022-10-26T08:29:34.169Z,9.7
2022-10-26T08:32:21.489Z,9.7
2022-10-26T08:35:08.900Z,9.8
2022-10-26T08:37:56.459Z,9.8
2022-10-26T08:40:44.167Z,9.9
2022-10-26T08:43:31.478Z,9.9
2022-10-26T08:46:24.415Z,10
2022-10-26T08:49:18.185Z,10
2022-10-26T08:52:10.889Z,10
2022-10-26T08:55:02.740Z,10.1
2022-10-26T08:57:57.400Z,10.1
2022-10-26T09:00:48.485Z,10.2
2022-10-26T09:03:36.990Z,10.3
2022-10-26T09:06:24.544Z,10.4
2022-10-26T09:09:20.416Z,10.5
2022-10-26T09:12:21.271Z,10.5
2022-10-26T09:15:17.891Z,10.6
2022-10-26T09:18:13.870Z,10.7
2022-10-26T09:21:13.256Z,10.7
2022-10-26T09:24:14.247Z,10.8
2022-10-26T09:27:08.647Z,10.8
2022-10-26T09:30:05.803Z,10.9
2022-10-26T09:32:59.526Z,10.9
2022-10-26T09:35:53.899Z,11
2022-10-26T09:38:45.998Z,11.1
2022-10-26T09:41:41.150Z,11.1
2022-10-26T09:44:33.851Z,11.3
2022-10-26T09:47:27.466Z,11.4
2022-10-26T09:50:20.125Z,11.4
2022-10-26T09:53:13.869Z,11.5
2022-10-26T09:56:01.306Z,11.6
2022-10-26T09:58:51.610Z,11.7
2022-10-26T10:01:44.266Z,11.8
2022-10-26T10:04:31.655Z,11.8
2022-10-26T10:07:19.352Z,11.8
2022-10-26T10:10:07.023Z,11.9
2022-10-26T10:13:00.923Z,12
2022-10-26T10:16:00.338Z,12.1
2022-10-26T10:18:52.776Z,12.2
2022-10-26T10:21:42.301Z,12.1
2022-10-26T10:24:33.456Z,12.1
2022-10-26T10:27:21.938Z,12.1
2022-10-26T10:30:10.411Z,12.3
2022-10-26T10:33:07.370Z,12.5
2022-10-26T10:35:57.251Z,12.6
2022-10-26T10:38:45.706Z,12.7
2022-10-26T10:41:34.711Z,12.7
2022-10-26T10:44:22.391Z,12.8
2022-10-26T10:47:14.258Z,12.9
2022-10-26T10:50:08.075Z,13.1
2022-10-26T10:53:04.543Z,13.3
2022-10-26T10:56:06.465Z,13.5
2022-10-26T10:59:21.143Z,13.6
2022-10-26T11:02:23.219Z,13.8
2022-10-26T11:05:41.193Z,14
2022-10-26T11:08:39.385Z,14.3
2022-10-26T11:11:35.081Z,14.5
2022-10-26T11:14:25.939Z,14.6
2022-10-26T11:17:18.121Z,14.6
2022-10-26T11:20:12.521Z,14.5
2022-10-26T11:23:07.162Z,14.5
2022-10-26T11:25:59.453Z,14.7
2022-10-26T11:28:54.984Z,15
2022-10-26T11:31:48.195Z,15
2022-10-26T11:34:40.603Z,15.1
2022-10-26T11:37:34.248Z,15.2
2022-10-26T11:40:30.345Z,15.3
2022-10-26T11:43:25.231Z,15.3
2022-10-26T11:46:19.331Z,15.4
2022-10-26T11:49:13.569Z,15.5
2022-10-26T11:52:07.933Z,15.5
2022-10-26T11:55:02.686Z,15.5
2022-10-26T11:57:53.843Z,15.4
2022-10-26T12:00:42.751Z,15.4
2022-10-26T12:03:34.688Z,15.4
2022-10-26T12:06:30.188Z,15.5
2022-10-26T12:09:19.910Z,15.7
2022-10-26T12:12:13.214Z,15.8
2022-10-26T12:15:08.807Z,15.9
2022-10-26T12:18:08.082Z,16.1
2022-10-26T12:21:02.474Z,16.3
2022-10-26T12:23:53.578Z,16.5
2022-10-26T12:26:43.655Z,16.4
2022-10-26T12:29:37.509Z,16.3
2022-10-26T12:32:32.086Z,16.2
2022-10-26T12:35:39.102Z,16.2
2022-10-26T12:38:31.702Z,16.3
2022-10-26T12:42:11.244Z,16.4
2022-10-26T12:45:14.618Z,16.5
2022-10-26T12:48:10.969Z,16.6
2022-10-26T12:51:09.772Z,16.6
2022-10-26T12:54:26.662Z,16.7
2022-10-26T12:57:26.419Z,16.8
2022-10-26T13:00:22.700Z,16.9
2022-10-26T13:03:12.066Z,17
2022-10-26T13:06:14.354Z,17.1
2022-10-26T13:09:21.055Z,17
2022-10-26T13:12:12.676Z,17.1
2022-10-26T13:15:00.164Z,17
2022-10-26T13:17:51.404Z,16.9
2022-10-26T13:20:43.059Z,16.7
2022-10-26T13:23:44.828Z,16.8
2022-10-26T13:26:41.416Z,16.9
2022-10-26T13:30:25.439Z,17.2
2022-10-26T13:33:34.036Z,17.4
2022-10-26T13:36:26.941Z,17.5
2022-10-26T13:39:21.815Z,17.7
2022-10-26T13:42:14.290Z,17.9
2022-10-26T13:45:05.846Z,18.1
2022-10-26T13:47:57.869Z,18.2
2022-10-26T13:50:50.932Z,18.1
2022-10-26T13:53:41.332Z,17.9
2022-10-26T13:56:35.338Z,17.7
2022-10-26T13:59:30.619Z,17.5
2022-10-26T14:02:23.173Z,17.6
2022-10-26T14:05:12.915Z,17.6
2022-10-26T14:08:03.438Z,17.7
2022-10-26T14:10:51.160Z,17.8
2022-10-26T14:13:42.729Z,17.8
2022-10-26T14:16:32.715Z,17.9
2022-10-26T14:19:20.470Z,17.8
2022-10-26T14:22:11.876Z,17.7
2022-10-26T14:25:06.687Z,17.7
2022-10-26T14:28:06.634Z,17.6
2022-10-26T14:31:07.594Z,17.4
2022-10-26T14:34:04.222Z,17.2
2022-10-26T14:36:51.593Z,17.1
2022-10-26T14:39:43.976Z,16.9
2022-10-26T14:42:32.413Z,16.8
2022-10-26T14:45:30.103Z,16.7
2022-10-26T14:48:36.953Z,16.5
2022-10-26T14:51:35.911Z,16.4
2022-10-26T14:54:23.599Z,16.2
2022-10-26T14:57:13.779Z,16.1
2022-10-26T15:00:18.888Z,16
2022-10-26T15:03:09.115Z,15.9
2022-10-26T15:06:02.117Z,15.8
2022-10-26T15:09:13.585Z,15.7
2022-10-26T15:12:34.043Z,15.5
2022-10-26T15:15:23.737Z,15.4
2022-10-26T15:18:11.423Z,15.3
2022-10-26T15:21:06.671Z,15.2
2022-10-26T15:24:10.822Z,15.1
2022-10-26T15:27:11.478Z,14.9
2022-10-26T15:30:01.303Z,14.8
2022-10-26T15:33:04.978Z,14.7
2022-10-26T15:36:06.663Z,14.6
2022-10-26T15:38:58.386Z,14.5
2022-10-26T15:41:45.704Z,14.4
2022-10-26T15:44:34.057Z,14.3
2022-10-26T15:47:21.368Z,14.2
2022-10-26T15:50:18.131Z,14.1
2022-10-26T15:53:08.265Z,13.9
2022-10-26T15:56:03.324Z,13.8
2022-10-26T15:58:58.798Z,13.7
2022-10-26T16:01:46.380Z,13.6
2022-10-26T16:04:36.557Z,13.5
2022-10-26T16:07:23.936Z,13.4
2022-10-26T16:10:12.464Z,13.3
2022-10-26T16:13:05.593Z,13.2
2022-10-26T16:15:57.879Z,13.2
2022-10-26T16:18:46.219Z,13.1
2022-10-26T16:21:38.267Z,13
2022-10-26T16:24:26.532Z,12.9
2022-10-26T16:27:14.928Z,12.8
2022-10-26T16:30:02.674Z,12.8
2022-10-26T16:32:52.379Z,12.7
2022-10-26T16:35:40.112Z,12.6
2022-10-26T16:38:27.490Z,12.5
2022-10-26T16:41:17.017Z,12.5
2022-10-26T16:44:05.649Z,12.4
2022-10-26T16:46:53.219Z,12.3
2022-10-26T16:49:40.587Z,12.3
2022-10-26T16:52:29.240Z,12.2
2022-10-26T16:55:19.424Z,12.2
2022-10-26T16:58:09.157Z,12.1
2022-10-26T17:00:56.555Z,12.1
2022-10-26T17:03:44.197Z,12
2022-10-26T17:06:32.994Z,12
2022-10-26T17:09:20.327Z,11.9
2022-10-26T17:12:07.651Z,11.9
2022-10-26T17:14:55.932Z,11.9
2022-10-26T17:17:45.064Z,11.8
2022-10-26T17:20:32.583Z,11.8
2022-10-26T17:23:19.857Z,11.7
2022-10-26T17:26:07.597Z,11.7
2022-10-26T17:28:57.063Z,11.7
2022-10-26T17:31:44.495Z,11.6
2022-10-26T17:34:31.855Z,11.6
2022-10-26T17:37:19.594Z,11.6
2022-10-26T17:40:07.085Z,11.5
2022-10-26T17:42:55.500Z,11.5
2022-10-26T17:45:44.592Z,11.5
2022-10-26T17:48:32.076Z,11.4
2022-10-26T17:51:19.695Z,11.4
2022-10-26T17:54:07.254Z,11.4
2022-10-26T17:56:54.677Z,11.3
2022-10-26T17:59:42.018Z,11.3
2022-10-26T18:02:29.630Z,11.3
2022-10-26T18:05:21.810Z,11.3
2022-10-26T18:08:09.196Z,11.2
2022-10-26T18:10:56.707Z,11.2
2022-10-26T18:13:44.403Z,11.2
2022-10-26T18:16:32.433Z,11.2
2022-10-26T18:19:19.937Z,11.2
2022-10-26T18:22:07.684Z,11.1
2022-10-26T18:24:54.944Z,11.1
2022-10-26T18:27:42.549Z,11.1
2022-10-26T18:30:29.942Z,11.1
2022-10-26T18:33:18.964Z,11.1
2022-10-26T18:36:06.399Z,11
2022-10-26T18:38:56.921Z,11
2022-10-26T18:41:44.863Z,11
2022-10-26T18:44:32.936Z,11
2022-10-26T18:47:20.287Z,10.9
2022-10-26T18:50:07.811Z,10.9
2022-10-26T18:52:55.406Z,10.9
2022-10-26T18:55:42.693Z,10.9
2022-10-26T18:58:30.199Z,10.9
2022-10-26T19:01:19.451Z,10.8
2022-10-26T19:04:08.859Z,10.8
2022-10-26T19:06:56.673Z,10.8
2022-10-26T19:09:46.036Z,10.8
2022-10-26T19:12:33.559Z,10.8
2022-10-26T19:15:21.236Z,10.8
2022-10-26T19:18:08.826Z,10.8
2022-10-26T19:20:56.116Z,10.8
2022-10-26T19:23:44.486Z,10.8
2022-10-26T19:26:35.336Z,10.7
2022-10-26T19:29:26.276Z,10.7
2022-10-26T19:32:14.719Z,10.7
2022-10-26T19:35:02.162Z,10.7
2022-10-26T19:37:50.438Z,10.7
2022-10-26T19:40:38.178Z,10.7
2022-10-26T19:43:25.518Z,10.6
2022-10-26T19:46:14.664Z,10.6
2022-10-26T19:49:05.161Z,10.6
2022-10-26T19:51:53.132Z,10.6
2022-10-26T19:54:42.530Z,10.6
2022-10-26T19:57:29.750Z,10.6
2022-10-26T20:00:17.193Z,10.6
2022-10-26T20:03:05.875Z,10.6
2022-10-26T20:05:57.349Z,10.6
2022-10-26T20:08:46.483Z,10.6
2022-10-26T20:11:34.912Z,10.6
2022-10-26T20:14:24.317Z,10.6
2022-10-26T20:17:11.719Z,10.6
2022-10-26T20:19:59.064Z,10.6
2022-10-26T20:22:46.360Z,10.6
2022-10-26T20:25:33.655Z,10.6
2022-10-26T20:28:21.507Z,10.6
2022-10-26T20:31:08.932Z,10.6
2022-10-26T20:33:56.304Z,10.6
2022-10-26T20:36:43.691Z,10.6
2022-10-26T20:39:31.058Z,10.6
2022-10-26T20:42:19.257Z,10.6
2022-10-26T20:45:09.684Z,10.6
2022-10-26T20:48:04.090Z,10.6
2022-10-26T20:50:52.363Z,10.6
2022-10-26T20:53:45.133Z,10.6
2022-10-26T20:56:37.334Z,10.6
2022-10-26T20:59:27.113Z,10.5
2022-10-26T21:02:20.234Z,10.5
2022-10-26T21:05:08.211Z,10.5
2022-10-26T21:10:44.173Z,10.5
2022-10-26T21:13:31.511Z,10.5
2022-10-26T21:16:19.193Z,10.5
2022-10-26T21:19:07.090Z,10.5
2022-10-26T21:21:54.842Z,10.5
2022-10-26T21:24:42.287Z,10.4
2022-10-26T21:27:29.701Z,10.4
2022-10-26T21:30:16.947Z,10.4
2022-10-26T21:33:05.258Z,10.4
2022-10-26T21:35:52.655Z,10.4
2022-10-26T21:38:40.001Z,10.3
2022-10-26T21:41:29.125Z,10.3
2022-10-26T21:44:32.790Z,10.3
2022-10-26T21:47:27.118Z,10.3
2022-10-26T21:50:14.472Z,10.3
2022-10-26T21:53:01.952Z,10.3
2022-10-26T21:55:49.230Z,10.3
2022-10-26T21:58:45.200Z,10.4
2022-10-26T22:01:33.492Z,10.3
2022-10-26T22:04:21.537Z,10.3
2022-10-26T22:07:08.874Z,10.4
2022-10-26T22:10:10.390Z,10.4
2022-10-26T22:12:58.478Z,10.4
2022-10-26T22:15:45.956Z,10.4
2022-10-26T22:18:33.547Z,10.4
2022-10-26T22:21:21.704Z,10.4
2022-10-26T22:24:11.122Z,10.5
2022-10-26T22:26:58.497Z,10.5
2022-10-26T22:29:45.845Z,10.5
2022-10-26T22:32:33.723Z,10.5
2022-10-26T22:35:29.507Z,10.5
2022-10-26T22:38:17.031Z,10.5
2022-10-26T22:41:05.342Z,10.5
2022-10-26T22:43:53.685Z,10.5
2022-10-26T22:46:40.965Z,10.5
2022-10-26T22:49:28.281Z,10.5
2022-10-26T22:52:15.671Z,10.5
2022-10-26T22:55:03.173Z,10.5
2022-10-26T22:57:51.755Z,10.5
2022-10-26T23:00:39.615Z,10.6
2022-10-26T23:03:27.071Z,10.6
2022-10-26T23:06:14.671Z,10.6
2022-10-26T23:09:04.560Z,10.6
2022-10-26T23:11:52.226Z,10.6
2022-10-26T23:14:39.671Z,10.5
2022-10-26T23:17:26.916Z,10.5
2022-10-26T23:20:14.378Z,10.5
2022-10-26T23:23:01.920Z,10.4
2022-10-26T23:25:49.337Z,10.4
2022-10-26T23:28:36.549Z,10.4
2022-10-26T23:31:24.935Z,10.4
2022-10-26T23:34:13.512Z,10.3
2022-10-26T23:37:00.865Z,10.3
2022-10-26T23:39:48.281Z,10.3
2022-10-26T23:42:35.554Z,10.3
2022-10-26T23:45:22.900Z,10.2
2022-10-26T23:48:10.384Z,10.2
2022-10-26T23:50:58.659Z,10.2
2022-10-26T23:53:45.992Z,10.1
2022-10-26T23:56:33.370Z,10.1
2022-10-26T23:59:22.146Z,10.1
